createdAt,value
2018-09-13T00:01:34.529Z,12.47
2018-09-13T00:04:03.632Z,10.67
2018-09-13T00:06:32.910Z,13.67
2018-09-13T00:09:01.959Z,9.87
2018-09-13T00:11:31.030Z,13.13
2018-09-13T00:14:00.138Z,10.17
2018-09-13T00:16:30.044Z,12.27
2018-09-13T00:18:59.060Z,10.57
2018-09-13T00:21:28.095Z,10.60
2018-09-13T00:23:57.073Z,13.63
2018-09-13T00:26:26.091Z,12.57
2018-09-13T00:28:55.102Z,11.90
2018-09-13T00:31:24.079Z,16.63
2018-09-13T00:33:53.069Z,11.03
2018-09-13T00:36:22.203Z,11.10
2018-09-13T00:38:51.159Z,10.83
2018-09-13T00:41:20.155Z,10.70
2018-09-13T00:43:49.271Z,11.50
2018-09-13T00:46:18.303Z,9.90
2018-09-13T00:48:47.311Z,10.43
2018-09-13T00:51:16.306Z,9.90
2018-09-13T00:53:45.321Z,10.47
2018-09-13T00:56:14.314Z,10.07
2018-09-13T00:58:43.333Z,9.77
2018-09-13T01:01:12.515Z,10.77
2018-09-13T01:03:42.378Z,10.50
2018-09-13T01:06:11.350Z,12.23
2018-09-13T01:08:40.370Z,10.80
2018-09-13T01:11:09.385Z,12.47
2018-09-13T01:13:38.427Z,9.93
2018-09-13T01:16:07.466Z,9.70
2018-09-13T01:18:36.475Z,11.13
2018-09-13T01:21:05.467Z,12.47
2018-09-13T01:23:35.470Z,12.77
2018-09-13T01:26:04.605Z,11.43
2018-09-13T01:28:33.630Z,11.50
2018-09-13T01:31:02.662Z,10.93
2018-09-13T01:33:31.674Z,11.63
2018-09-13T01:36:00.740Z,11.83
2018-09-13T01:38:29.721Z,12.27
2018-09-13T01:40:58.733Z,14.47
2018-09-13T01:43:27.771Z,15.67
2018-09-13T01:45:56.842Z,14.80
2018-09-13T01:48:25.827Z,14.13
2018-09-13T01:50:54.865Z,15.33
2018-09-13T01:53:23.846Z,14.33
2018-09-13T01:55:52.838Z,13.20
2018-09-13T01:58:21.858Z,12.80
2018-09-13T02:00:50.857Z,12.90
2018-09-13T02:03:19.906Z,15.17
2018-09-13T02:05:48.923Z,11.87
2018-09-13T02:08:17.974Z,12.30
2018-09-13T02:10:47.017Z,10.53
2018-09-13T02:13:16.025Z,12.83
2018-09-13T02:15:45.070Z,11.97
2018-09-13T02:18:14.051Z,12.33
2018-09-13T02:20:43.072Z,13.03
2018-09-13T02:23:12.120Z,12.30
2018-09-13T02:25:41.146Z,14.73
2018-09-13T02:28:10.132Z,17.07
2018-09-13T02:30:39.209Z,13.20
2018-09-13T02:33:08.258Z,14.30
2018-09-13T02:35:37.242Z,14.43
2018-09-13T02:38:06.222Z,14.90
2018-09-13T02:40:35.257Z,15.77
2018-09-13T02:43:04.290Z,16.57
2018-09-13T02:45:33.282Z,16.00
2018-09-13T02:48:02.350Z,17.27
2018-09-13T02:50:31.355Z,18.93
2018-09-13T02:53:00.350Z,16.87
2018-09-13T02:55:29.353Z,17.37
2018-09-13T02:57:58.362Z,18.23
2018-09-13T03:00:27.358Z,18.03
2018-09-13T03:02:56.420Z,18.20
2018-09-13T03:05:25.386Z,17.87
2018-09-13T03:07:54.423Z,17.23
2018-09-13T03:10:23.429Z,16.70
2018-09-13T03:12:52.414Z,17.90
2018-09-13T03:15:21.406Z,16.83
2018-09-13T03:17:50.394Z,15.50
2018-09-13T03:20:19.486Z,18.57
2018-09-13T03:22:48.474Z,17.57
2018-09-13T03:25:17.552Z,17.03
2018-09-13T03:27:46.586Z,19.07
2018-09-13T03:30:15.839Z,19.60
2018-09-13T03:32:44.841Z,19.40
2018-09-13T03:35:13.914Z,20.67
2018-09-13T03:37:42.877Z,18.90
2018-09-13T03:40:11.862Z,23.93
2018-09-13T03:42:41.026Z,26.50
2018-09-13T03:45:10.058Z,19.83
2018-09-13T03:47:39.052Z,18.97
2018-09-13T03:50:08.425Z,22.03
2018-09-13T03:52:37.428Z,21.13
2018-09-13T03:55:06.468Z,24.00
2018-09-13T03:57:35.506Z,22.77
2018-09-13T04:00:04.647Z,21.27
2018-09-13T04:02:33.658Z,20.23
2018-09-13T04:05:02.713Z,25.73
2018-09-13T04:07:31.730Z,28.73
2018-09-13T04:10:00.791Z,24.67
2018-09-13T04:12:29.799Z,21.53
2018-09-13T04:14:58.821Z,26.53
2018-09-13T04:17:28.119Z,23.13
2018-09-13T04:19:57.107Z,23.47
2018-09-13T04:22:26.156Z,20.17
2018-09-13T04:24:55.820Z,22.90
2018-09-13T04:27:24.786Z,25.70
2018-09-13T04:29:53.797Z,25.23
2018-09-13T04:32:22.879Z,25.73
2018-09-13T04:34:52.569Z,25.00
2018-09-13T04:37:22.271Z,26.20
2018-09-13T04:39:51.297Z,26.27
2018-09-13T04:42:20.410Z,22.50
2018-09-13T04:44:49.394Z,24.63
2018-09-13T04:47:18.369Z,26.17
2018-09-13T04:49:47.417Z,24.60
2018-09-13T04:52:16.406Z,21.90
2018-09-13T04:54:45.373Z,23.13
2018-09-13T04:57:14.649Z,21.00
2018-09-13T04:59:43.625Z,22.30
2018-09-13T05:02:12.632Z,21.50
2018-09-13T05:04:41.740Z,21.27
2018-09-13T05:07:10.721Z,21.50
2018-09-13T05:09:39.709Z,24.07
2018-09-13T05:12:08.790Z,21.93
2018-09-13T05:14:38.095Z,21.30
2018-09-13T05:17:07.081Z,23.63
2018-09-13T05:19:36.070Z,21.80
2018-09-13T05:22:05.073Z,21.57
2018-09-13T05:24:34.063Z,22.97
2018-09-13T05:27:03.068Z,20.80
2018-09-13T05:29:32.050Z,20.73
2018-09-13T05:32:01.077Z,20.63
2018-09-13T05:34:30.078Z,22.77
2018-09-13T05:36:59.102Z,22.00
2018-09-13T05:39:28.062Z,25.63
2018-09-13T05:41:57.053Z,23.10
2018-09-13T05:44:26.059Z,20.67
2018-09-13T05:46:55.058Z,21.80
2018-09-13T05:49:24.037Z,21.13
2018-09-13T05:51:53.145Z,20.77
2018-09-13T05:54:22.206Z,20.37
2018-09-13T05:56:51.197Z,22.40
2018-09-13T05:59:20.197Z,22.97
2018-09-13T06:01:49.266Z,23.93
2018-09-13T06:04:18.261Z,33.07
2018-09-13T06:06:47.287Z,25.67
2018-09-13T06:09:16.313Z,25.27
2018-09-13T06:11:45.355Z,22.13
2018-09-13T06:14:14.361Z,21.70
2018-09-13T06:16:43.383Z,28.63
2018-09-13T06:19:12.356Z,28.17
2018-09-13T06:21:41.318Z,22.20
2018-09-13T06:24:10.342Z,21.40
2018-09-13T06:26:39.396Z,22.63
2018-09-13T06:29:08.392Z,19.20
2018-09-13T06:31:37.406Z,19.57
2018-09-13T06:34:06.632Z,22.97
2018-09-13T06:36:35.622Z,19.77
2018-09-13T06:39:07.214Z,24.73
2018-09-13T06:41:36.228Z,21.67
2018-09-13T06:44:05.217Z,22.93
2018-09-13T06:46:34.209Z,18.80
2018-09-13T06:49:03.227Z,22.67
2018-09-13T06:51:32.312Z,20.43
2018-09-13T06:54:01.349Z,21.03
2018-09-13T06:56:30.610Z,20.63
2018-09-13T06:58:59.615Z,21.20
2018-09-13T07:01:28.626Z,20.80
2018-09-13T07:03:57.826Z,23.23
2018-09-13T07:06:26.807Z,21.77
2018-09-13T07:08:55.890Z,19.73
2018-09-13T07:11:25.091Z,23.17
2018-09-13T07:13:54.262Z,20.30
2018-09-13T07:16:23.284Z,19.90
2018-09-13T07:18:52.626Z,19.43
2018-09-13T07:21:21.598Z,22.73
2018-09-13T07:23:50.573Z,22.00
2018-09-13T07:26:19.562Z,19.47
2018-09-13T07:28:48.546Z,23.50
2018-09-13T07:31:17.531Z,21.57
2018-09-13T07:33:46.494Z,19.27
2018-09-13T07:36:15.552Z,20.87
2018-09-13T07:38:44.504Z,21.00
2018-09-13T07:41:13.522Z,21.00
2018-09-13T07:43:42.502Z,19.73
2018-09-13T07:46:11.526Z,20.23
2018-09-13T07:48:40.558Z,23.57
2018-09-13T07:51:09.682Z,23.93
2018-09-13T07:53:38.727Z,22.60
2018-09-13T07:56:07.774Z,18.30
2018-09-13T07:58:36.758Z,15.80
2018-09-13T08:01:05.753Z,16.63
2018-09-13T08:03:34.758Z,17.93
2018-09-13T08:06:03.779Z,16.87
2018-09-13T08:08:32.743Z,18.97
2018-09-13T08:11:01.767Z,13.13
2018-09-13T08:13:30.741Z,16.23
2018-09-13T08:15:59.822Z,16.20
2018-09-13T08:18:28.750Z,13.17
2018-09-13T08:20:57.794Z,15.13
2018-09-13T08:23:27.606Z,14.47
2018-09-13T08:25:56.554Z,17.23
2018-09-13T08:28:25.541Z,18.10
2018-09-13T08:30:54.612Z,18.30
2018-09-13T08:33:23.762Z,16.93
2018-09-13T08:35:52.598Z,20.73
2018-09-13T08:38:21.619Z,18.37
2018-09-13T08:40:50.595Z,16.43
2018-09-13T08:43:19.616Z,18.10
2018-09-13T08:45:48.637Z,18.73
2018-09-13T08:48:17.621Z,20.10
2018-09-13T08:50:46.634Z,16.23
2018-09-13T08:53:15.674Z,17.77
2018-09-13T08:55:44.825Z,17.23
2018-09-13T08:58:13.840Z,18.90
2018-09-13T09:00:42.928Z,18.40
2018-09-13T09:03:11.929Z,19.17
2018-09-13T09:05:40.930Z,17.83
2018-09-13T09:08:09.928Z,19.27
2018-09-13T09:10:38.914Z,18.83
2018-09-13T09:13:07.930Z,17.43
2018-09-13T09:15:36.922Z,20.00
2018-09-13T09:18:06.381Z,17.67
2018-09-13T09:20:35.373Z,13.73
2018-09-13T09:23:04.527Z,14.87
2018-09-13T09:25:33.466Z,18.33
2018-09-13T09:28:02.483Z,15.00
2018-09-13T09:30:31.483Z,18.87
2018-09-13T09:33:00.472Z,17.83
2018-09-13T09:35:29.542Z,18.37
2018-09-13T09:37:58.546Z,15.97
2018-09-13T09:40:27.653Z,16.53
2018-09-13T09:42:56.565Z,16.43
2018-09-13T09:45:25.534Z,15.57
2018-09-13T09:47:54.601Z,14.90
2018-09-13T09:50:23.609Z,16.23
2018-09-13T09:52:52.521Z,13.30
2018-09-13T09:55:22.974Z,12.67
2018-09-13T09:57:52.614Z,13.40
2018-09-13T10:02:30.059Z,13.07
2018-09-13T10:04:59.079Z,13.00
2018-09-13T10:07:28.050Z,12.73
2018-09-13T10:09:57.034Z,14.70
2018-09-13T10:12:26.017Z,12.10
2018-09-13T10:15:00.406Z,13.60
2018-09-13T10:17:34.489Z,10.73
2018-09-13T10:20:08.885Z,12.20
2018-09-13T10:22:43.290Z,11.97
2018-09-13T10:25:17.592Z,10.60
2018-09-13T10:27:51.834Z,12.00
2018-09-13T10:30:26.134Z,11.43
2018-09-13T10:33:00.459Z,13.43
2018-09-13T10:35:34.890Z,9.83
2018-09-13T10:38:09.207Z,10.70
2018-09-13T10:40:43.698Z,9.50
2018-09-13T10:43:18.002Z,12.63
2018-09-13T10:45:52.361Z,10.00
2018-09-13T10:48:25.670Z,11.47
2018-09-13T10:51:00.081Z,10.20
2018-09-13T10:53:34.462Z,10.20
2018-09-13T10:56:04.288Z,10.87
2018-09-13T10:58:33.307Z,9.97
2018-09-13T11:01:02.301Z,10.27
2018-09-13T11:03:32.046Z,9.50
2018-09-13T11:06:02.261Z,11.10
2018-09-13T11:08:31.254Z,13.97
2018-09-13T11:11:00.371Z,12.33
2018-09-13T11:13:36.665Z,11.57
2018-09-13T11:16:05.707Z,12.30
2018-09-13T11:18:34.670Z,11.37
2018-09-13T11:21:03.698Z,14.10
2018-09-13T11:23:32.670Z,13.80
2018-09-13T11:26:01.757Z,16.10
2018-09-13T11:28:30.778Z,12.80
2018-09-13T11:31:01.619Z,12.60
2018-09-13T11:33:31.014Z,11.83
2018-09-13T11:36:00.058Z,14.00
2018-09-13T11:38:29.014Z,13.27
2018-09-13T11:40:58.594Z,10.20
2018-09-13T11:43:28.037Z,13.27
2018-09-13T11:45:57.063Z,15.27
2018-09-13T11:48:26.095Z,12.70
2018-09-13T11:50:55.183Z,16.27
2018-09-13T11:53:24.345Z,12.80
2018-09-13T11:55:53.646Z,16.43
2018-09-13T11:58:22.632Z,14.93
2018-09-13T12:00:51.653Z,12.53
2018-09-13T12:03:20.658Z,13.20
2018-09-13T12:05:49.734Z,10.83
2018-09-13T12:08:18.738Z,11.63
2018-09-13T12:10:48.963Z,10.70
2018-09-13T12:13:18.342Z,12.80
2018-09-13T12:15:47.447Z,11.77
2018-09-13T12:18:16.829Z,10.83
2018-09-13T12:20:45.756Z,21.27
2018-09-13T12:23:15.057Z,10.80
2018-09-13T12:25:44.177Z,10.27
2018-09-13T12:28:13.243Z,11.70
2018-09-13T12:30:42.254Z,10.50
2018-09-13T12:33:11.523Z,9.60
2018-09-13T12:35:40.505Z,11.27
2018-09-13T12:38:09.497Z,10.67
2018-09-13T12:40:38.533Z,13.13
2018-09-13T12:43:07.548Z,11.57
2018-09-13T12:45:37.133Z,10.43
2018-09-13T12:48:06.118Z,10.03
2018-09-13T12:50:35.159Z,8.90
2018-09-13T12:53:04.276Z,8.90
2018-09-13T12:55:38.603Z,9.87
2018-09-13T12:58:07.603Z,11.20
2018-09-13T13:00:36.611Z,10.50
2018-09-13T13:03:05.653Z,9.87
2018-09-13T13:05:34.670Z,11.40
2018-09-13T13:08:03.865Z,10.93
2018-09-13T13:10:32.865Z,10.73
2018-09-13T13:13:01.887Z,9.33
2018-09-13T13:15:30.951Z,10.90
2018-09-13T13:17:59.968Z,9.27
2018-09-13T13:20:28.989Z,9.17
2018-09-13T13:22:58.541Z,10.90
2018-09-13T13:25:27.548Z,8.90
2018-09-13T13:27:56.652Z,7.60
2018-09-13T13:30:25.948Z,9.20
2018-09-13T13:32:55.043Z,11.30
2018-09-13T13:35:24.025Z,10.83
2018-09-13T13:37:52.993Z,9.57
2018-09-13T13:40:21.991Z,9.77
2018-09-13T13:42:50.961Z,8.90
2018-09-13T13:45:19.939Z,8.67
2018-09-13T13:47:48.910Z,9.57
2018-09-13T13:50:17.938Z,9.33
2018-09-13T13:52:46.897Z,9.20
2018-09-13T13:55:16.082Z,8.67
2018-09-13T13:57:45.387Z,9.07
2018-09-13T14:00:14.439Z,9.53
2018-09-13T14:02:43.542Z,11.90
2018-09-13T14:05:18.964Z,7.73
2018-09-13T14:07:47.997Z,8.90
2018-09-13T14:10:17.315Z,11.57
2018-09-13T14:12:46.318Z,9.97
2018-09-13T14:15:15.458Z,7.80
2018-09-13T14:17:44.480Z,7.30
2018-09-13T14:20:13.478Z,7.63
2018-09-13T14:22:42.470Z,8.87
2018-09-13T14:25:12.026Z,10.10
2018-09-13T14:27:41.119Z,7.40
2018-09-13T14:30:10.116Z,8.37
2018-09-13T14:32:39.383Z,9.83
2018-09-13T14:35:08.436Z,6.73
2018-09-13T14:37:37.405Z,7.43
2018-09-13T14:40:06.504Z,11.60
2018-09-13T14:42:35.467Z,8.27
2018-09-13T14:45:04.671Z,6.43
2018-09-13T14:47:33.680Z,9.60
2018-09-13T14:50:02.657Z,7.23
2018-09-13T14:52:31.674Z,9.90
2018-09-13T14:55:00.694Z,9.10
2018-09-13T14:57:29.686Z,14.30
2018-09-13T14:59:58.711Z,41.13
2018-09-13T15:02:27.709Z,50.07
2018-09-13T15:04:56.723Z,8.07
2018-09-13T15:07:25.870Z,7.17
2018-09-13T15:09:54.800Z,9.73
2018-09-13T15:12:23.775Z,9.40
2018-09-13T15:14:52.829Z,9.30
2018-09-13T15:17:21.854Z,10.60
2018-09-13T15:19:50.851Z,10.63
2018-09-13T15:22:19.909Z,12.17
2018-09-13T15:24:49.023Z,11.00
2018-09-13T15:27:17.959Z,10.10
2018-09-13T15:29:46.987Z,9.97
2018-09-13T15:32:15.978Z,12.63
2018-09-13T15:34:44.987Z,12.97
2018-09-13T15:37:13.964Z,14.33
2018-09-13T15:39:43.023Z,18.70
2018-09-13T15:42:11.991Z,15.73
2018-09-13T15:44:41.002Z,14.07
2018-09-13T15:47:09.978Z,16.07
2018-09-13T15:49:39.011Z,16.83
2018-09-13T15:52:08.022Z,22.30
2018-09-13T15:54:37.078Z,16.47
2018-09-13T15:57:06.084Z,17.57
2018-09-13T15:59:35.786Z,22.23
2018-09-13T16:02:05.674Z,16.40
2018-09-13T16:04:34.678Z,18.90
2018-09-13T16:07:03.814Z,19.53
2018-09-13T16:09:32.818Z,20.37
2018-09-13T16:12:01.815Z,17.57
2018-09-13T16:14:31.092Z,18.43
2018-09-13T16:17:00.172Z,16.50
2018-09-13T16:19:29.246Z,16.53
2018-09-13T16:21:58.262Z,20.63
2018-09-13T16:24:27.277Z,18.53
2018-09-13T16:26:56.250Z,22.93
2018-09-13T16:29:25.407Z,20.13
2018-09-13T16:31:54.410Z,21.63
2018-09-13T16:34:23.983Z,20.57
2018-09-13T16:37:08.619Z,19.90
2018-09-13T16:39:43.189Z,19.90
2018-09-13T16:42:17.495Z,20.07
2018-09-13T16:44:54.570Z,17.10
2018-09-13T16:47:30.643Z,17.57
2018-09-13T16:50:00.811Z,20.87
2018-09-13T16:52:30.804Z,16.57
2018-09-13T16:54:59.906Z,18.93
2018-09-13T16:57:28.911Z,20.73
2018-09-13T16:59:57.950Z,17.20
2018-09-13T17:02:27.007Z,18.83
2018-09-13T17:04:56.002Z,18.80
2018-09-13T17:07:25.046Z,18.77
2018-09-13T17:09:54.071Z,22.47
2018-09-13T17:12:23.138Z,21.43
2018-09-13T17:14:52.174Z,19.70
2018-09-13T17:17:21.157Z,19.37
2018-09-13T17:19:50.145Z,22.97
2018-09-13T17:22:19.157Z,23.60
2018-09-13T17:24:48.201Z,23.47
2018-09-13T17:27:17.228Z,22.00
2018-09-13T17:29:46.230Z,25.07
2018-09-13T17:32:15.222Z,23.13
2018-09-13T17:34:44.246Z,27.40
2018-09-13T17:37:13.338Z,28.70
2018-09-13T17:39:42.405Z,25.27
2018-09-13T17:42:11.398Z,33.97
2018-09-13T17:44:40.385Z,25.20
2018-09-13T17:49:43.568Z,26.60
2018-09-13T17:52:12.583Z,26.40
2018-09-13T17:54:41.655Z,27.97
2018-09-13T17:57:10.677Z,22.10
2018-09-13T17:59:39.701Z,26.07
2018-09-13T18:02:10.166Z,23.50
2018-09-13T18:04:39.286Z,27.97
2018-09-13T18:07:08.360Z,28.10
2018-09-13T18:09:37.947Z,31.07
2018-09-13T18:12:07.199Z,28.67
2018-09-13T18:14:36.201Z,33.63
2018-09-13T18:17:05.212Z,31.77
2018-09-13T18:19:35.907Z,29.93
2018-09-13T18:22:04.885Z,30.47
2018-09-13T18:24:34.610Z,27.23
2018-09-13T18:27:03.836Z,37.20
2018-09-13T18:29:33.013Z,27.80
2018-09-13T18:32:02.193Z,26.63
2018-09-13T18:34:31.330Z,28.73
2018-09-13T18:37:00.305Z,30.00
2018-09-13T18:39:29.627Z,26.77
2018-09-13T18:41:58.614Z,29.57
2018-09-13T18:44:27.634Z,36.20
2018-09-13T18:46:56.622Z,28.10
2018-09-13T18:49:27.478Z,29.63
2018-09-13T18:51:58.269Z,33.77
2018-09-13T18:54:27.419Z,31.17
2018-09-13T18:56:57.184Z,29.87
2018-09-13T18:59:26.309Z,31.07
2018-09-13T19:01:55.213Z,29.23
2018-09-13T19:04:24.258Z,34.03
2018-09-13T19:06:53.286Z,29.97
2018-09-13T19:09:22.277Z,28.30
2018-09-13T19:11:51.270Z,34.60
2018-09-13T19:14:21.009Z,31.80
2018-09-13T19:16:56.272Z,33.07
2018-09-13T19:19:26.033Z,29.70
2018-09-13T19:21:55.074Z,32.43
2018-09-13T19:24:24.639Z,32.43
2018-09-13T19:26:53.938Z,34.73
2018-09-13T19:29:25.391Z,31.63
2018-09-13T19:31:55.652Z,29.80
2018-09-13T19:34:25.373Z,35.63
2018-09-13T19:36:55.604Z,32.17
2018-09-13T19:39:24.611Z,31.57
2018-09-13T19:41:54.019Z,31.27
2018-09-13T19:44:23.226Z,33.97
2018-09-13T19:46:52.380Z,32.33
2018-09-13T19:49:22.098Z,30.93
2018-09-13T19:51:51.200Z,29.93
2018-09-13T19:54:20.381Z,33.30
2018-09-13T19:56:49.435Z,31.60
2018-09-13T19:59:19.526Z,31.03
2018-09-13T20:01:48.553Z,33.97
2018-09-13T20:04:17.903Z,32.77
2018-09-13T20:06:46.920Z,32.37
2018-09-13T20:09:16.161Z,31.53
2018-09-13T20:11:45.237Z,33.27
2018-09-13T20:14:14.195Z,30.17
2018-09-13T20:16:43.398Z,33.27
2018-09-13T20:19:12.485Z,33.73
2018-09-13T20:21:41.491Z,31.27
2018-09-13T20:24:10.531Z,37.97
2018-09-13T20:26:39.549Z,30.67
2018-09-13T20:29:08.553Z,36.60
2018-09-13T20:31:38.435Z,33.73
2018-09-13T20:34:07.534Z,29.37
2018-09-13T20:36:36.568Z,30.77
2018-09-13T20:39:07.938Z,35.97
2018-09-13T20:41:36.985Z,35.37
2018-09-13T20:44:06.522Z,34.67
2018-09-13T20:46:35.736Z,33.20
2018-09-13T20:49:04.897Z,31.10
2018-09-13T20:51:33.883Z,36.60
2018-09-13T20:54:02.895Z,34.53
2018-09-13T20:56:31.894Z,37.40
2018-09-13T20:59:00.868Z,36.17
2018-09-13T21:01:29.887Z,34.70
2018-09-13T21:03:58.879Z,34.10
2018-09-13T21:06:27.893Z,37.50
2018-09-13T21:08:56.888Z,34.97
2018-09-13T21:11:26.001Z,36.13
2018-09-13T21:13:55.013Z,38.50
2018-09-13T21:16:23.993Z,37.83
2018-09-13T21:18:53.008Z,34.67
2018-09-13T21:21:22.035Z,35.37
2018-09-13T21:23:51.073Z,36.77
2018-09-13T21:26:20.092Z,39.67
2018-09-13T21:28:49.322Z,43.10
2018-09-13T21:31:18.298Z,40.30
2018-09-13T21:33:47.367Z,34.30
2018-09-13T21:36:16.346Z,36.50
2018-09-13T21:38:45.385Z,37.70
2018-09-13T21:41:14.365Z,35.50
2018-09-13T21:43:43.359Z,34.07
2018-09-13T21:46:12.394Z,34.03
2018-09-13T21:48:41.397Z,39.90
2018-09-13T21:51:10.395Z,35.73
2018-09-13T21:53:39.405Z,43.37
2018-09-13T21:56:08.386Z,39.53
2018-09-13T21:58:37.401Z,39.80
2018-09-13T22:01:06.715Z,37.23
2018-09-13T22:03:35.707Z,37.90
2018-09-13T22:06:04.749Z,40.07
2018-09-13T22:08:33.818Z,35.50
2018-09-13T22:11:03.016Z,37.87
2018-09-13T22:13:32.707Z,37.23
2018-09-13T22:16:02.657Z,45.47
2018-09-13T22:18:32.041Z,40.03
2018-09-13T22:21:01.043Z,36.47
2018-09-13T22:23:30.051Z,43.73
2018-09-13T22:25:59.173Z,43.97
2018-09-13T22:28:28.209Z,46.97
2018-09-13T22:30:57.193Z,41.00
2018-09-13T22:33:26.230Z,40.83
2018-09-13T22:35:55.211Z,49.20
2018-09-13T22:38:24.315Z,46.17
2018-09-13T22:40:53.755Z,41.47
2018-09-13T22:43:22.908Z,45.63
2018-09-13T22:45:51.890Z,41.63
2018-09-13T22:48:21.188Z,41.50
2018-09-13T22:50:50.230Z,49.97
2018-09-13T22:53:19.242Z,45.30
2018-09-13T22:55:48.226Z,47.17
2018-09-13T22:58:17.288Z,44.77
2018-09-13T23:00:46.261Z,41.07
2018-09-13T23:03:15.245Z,43.87
2018-09-13T23:05:44.245Z,44.73
2018-09-13T23:08:13.282Z,42.90
2018-09-13T23:10:42.347Z,47.87
2018-09-13T23:13:11.527Z,46.30
2018-09-13T23:15:40.593Z,58.03
2018-09-13T23:18:09.665Z,45.17
2018-09-13T23:20:38.847Z,42.30
2018-09-13T23:23:07.842Z,55.87
2018-09-13T23:25:36.835Z,48.30
2018-09-13T23:28:05.971Z,50.97
2018-09-13T23:30:35.336Z,47.67
2018-09-13T23:33:04.410Z,48.20
2018-09-13T23:35:33.400Z,48.27
2018-09-13T23:38:02.411Z,44.67
2018-09-13T23:40:31.605Z,42.80
2018-09-13T23:43:00.556Z,42.23
2018-09-13T23:45:29.864Z,42.97
2018-09-13T23:47:59.412Z,46.33
2018-09-13T23:50:28.537Z,45.40
2018-09-13T23:52:57.605Z,46.40
2018-09-13T23:55:26.651Z,46.17
2018-09-13T23:57:55.659Z,42.30
